Time;durP1;ratioP1;P1;durP2;ratioP2;P2;SDS_P1;SDS_P2;PMS_P1;PMS_P2;Temp;Humidity;BMP_temperature;BMP_pressure;BME280_temperature;BME280_humidity;BME280_pressure;Samples;Min_cycle;Max_cycle;Signal;HPM_P1;HPM_P2
2022/04/07 00:01:37;;;;;;;18.70;6.60;;;;;;;;;;5075636;28;20196;-89
2022/04/07 00:04:07;;;;;;;20.17;5.70;;;;;;;;;;5075058;28;20244;-89
2022/04/07 00:06:37;;;;;;;17.20;6.40;;;;;;;;;;5075324;28;20221;-89
2022/04/07 00:09:06;;;;;;;24.20;6.07;;;;;;;;;;5109021;28;20196;-89
2022/04/07 00:11:34;;;;;;;23.03;6.90;;;;;;;;;;5108872;28;20208;-89
2022/04/07 00:14:02;;;;;;;25.83;8.03;;;;;;;;;;5075119;28;20214;-89
2022/04/07 00:16:31;;;;;;;33.33;8.63;;;;;;;;;;5093158;28;20216;-89
2022/04/07 00:19:01;;;;;;;19.03;5.80;;;;;;;;;;5108895;28;20250;-89
2022/04/07 00:21:38;;;;;;;10.10;5.07;;;;;;;;;;5074950;28;20205;-89
2022/04/07 00:24:07;;;;;;;26.77;6.37;;;;;;;;;;5074601;28;20294;-89
2022/04/07 00:26:36;;;;;;;21.00;5.50;;;;;;;;;;5075042;28;20295;-90
2022/04/07 00:29:04;;;;;;;24.93;7.57;;;;;;;;;;5075069;28;20298;-88
2022/04/07 00:31:39;;;;;;;19.50;4.23;;;;;;;;;;5074738;28;20212;-89
2022/04/07 00:34:11;;;;;;;21.33;5.60;;;;;;;;;;5074729;28;20199;-89
2022/04/07 00:36:40;;;;;;;14.77;3.77;;;;;;;;;;5074951;28;20215;-89
2022/04/07 00:39:09;;;;;;;13.10;5.07;;;;;;;;;;5074929;28;20203;-89
2022/04/07 00:41:39;;;;;;;10.53;5.83;;;;;;;;;;5074540;28;20229;-89
2022/04/07 00:44:08;;;;;;;23.43;6.50;;;;;;;;;;5074515;28;20243;-88
2022/04/07 00:46:37;;;;;;;30.97;8.63;;;;;;;;;;5074952;28;20185;-89
2022/04/07 00:49:06;;;;;;;39.93;11.10;;;;;;;;;;5074686;28;20208;-89
2022/04/07 00:51:37;;;;;;;13.37;5.53;;;;;;;;;;5074722;28;20214;-90
2022/04/07 00:54:06;;;;;;;20.00;4.80;;;;;;;;;;5074581;28;20205;-89
2022/04/07 00:56:36;;;;;;;33.20;11.03;;;;;;;;;;5074824;28;20216;-89
2022/04/07 00:59:06;;;;;;;25.40;8.23;;;;;;;;;;5074249;28;20201;-89
2022/04/07 01:01:34;;;;;;;14.93;6.63;;;;;;;;;;5074706;28;20223;-89
2022/04/07 01:04:03;;;;;;;24.90;7.10;;;;;;;;;;5077660;28;20210;-89
2022/04/07 01:06:32;;;;;;;23.87;6.33;;;;;;;;;;5078478;28;20220;-89
2022/04/07 01:09:02;;;;;;;22.50;5.40;;;;;;;;;;5078029;28;20228;-89
2022/04/07 01:11:31;;;;;;;27.60;9.83;;;;;;;;;;5078406;28;20196;-89
2022/04/07 01:13:59;;;;;;;17.13;5.87;;;;;;;;;;5077772;28;20196;-89
2022/04/07 01:16:30;;;;;;;12.00;4.40;;;;;;;;;;5078217;28;20227;-89
2022/04/07 01:18:59;;;;;;;25.77;5.10;;;;;;;;;;5078098;28;20258;-89
2022/04/07 01:21:30;;;;;;;21.77;5.50;;;;;;;;;;5077750;28;20201;-89
2022/04/07 01:24:04;;;;;;;24.63;7.63;;;;;;;;;;5077478;28;20200;-89
2022/04/07 01:26:37;;;;;;;25.87;6.43;;;;;;;;;;5096011;28;20193;-89
2022/04/07 01:29:06;;;;;;;21.10;7.40;;;;;;;;;;5094284;28;20210;-89
2022/04/07 01:31:35;;;;;;;23.33;5.87;;;;;;;;;;5077757;28;20205;-89
2022/04/07 01:34:04;;;;;;;29.30;8.03;;;;;;;;;;5077321;28;20249;-90
2022/04/07 01:36:35;;;;;;;25.10;7.67;;;;;;;;;;5095663;28;20272;-89
2022/04/07 01:39:04;;;;;;;19.23;4.87;;;;;;;;;;5094646;28;20209;-89
2022/04/07 01:41:34;;;;;;;24.40;5.57;;;;;;;;;;5091154;28;20237;-90
2022/04/07 01:44:04;;;;;;;17.37;5.33;;;;;;;;;;5091303;28;20204;-89
2022/04/07 01:46:33;;;;;;;23.77;5.70;;;;;;;;;;5074009;28;20288;-89
2022/04/07 01:49:02;;;;;;;12.43;5.13;;;;;;;;;;5090590;28;20200;-89
2022/04/07 01:51:31;;;;;;;15.20;4.00;;;;;;;;;;5074200;28;20204;-89
2022/04/07 01:53:59;;;;;;;20.40;8.00;;;;;;;;;;5074753;28;20196;-89
2022/04/07 01:56:30;;;;;;;21.57;6.23;;;;;;;;;;5090620;28;20304;-89
2022/04/07 01:59:00;;;;;;;36.80;7.17;;;;;;;;;;5090851;28;20246;-89
2022/04/07 02:01:28;;;;;;;26.63;9.10;;;;;;;;;;5073891;28;20197;-89
2022/04/07 02:03:57;;;;;;;34.20;9.33;;;;;;;;;;5073705;28;20201;-89
2022/04/07 02:06:26;;;;;;;25.20;9.17;;;;;;;;;;5090234;28;20230;-90
2022/04/07 02:08:54;;;;;;;29.50;8.17;;;;;;;;;;5074761;28;20239;-89
2022/04/07 02:11:23;;;;;;;23.47;8.07;;;;;;;;;;5073939;28;20197;-89
2022/04/07 02:13:51;;;;;;;24.03;6.53;;;;;;;;;;5080305;28;20201;-90
2022/04/07 02:16:22;;;;;;;32.33;8.97;;;;;;;;;;5073295;28;20240;-89
2022/04/07 02:18:51;;;;;;;25.03;6.17;;;;;;;;;;5073086;28;20206;-89
2022/04/07 02:21:19;;;;;;;24.70;8.37;;;;;;;;;;5073608;28;20227;-89
2022/04/07 02:23:48;;;;;;;20.97;5.23;;;;;;;;;;5072965;28;20208;-90
2022/04/07 02:26:17;;;;;;;30.17;9.77;;;;;;;;;;5073056;28;20289;-89
2022/04/07 02:28:46;;;;;;;26.50;6.40;;;;;;;;;;5073416;28;20200;-89
2022/04/07 02:31:14;;;;;;;20.87;7.73;;;;;;;;;;5073001;28;20202;-90
2022/04/07 02:33:45;;;;;;;29.83;9.33;;;;;;;;;;5090036;28;20237;-89
2022/04/07 02:36:17;;;;;;;23.33;7.77;;;;;;;;;;5073116;28;20312;-89
2022/04/07 02:38:46;;;;;;;40.50;11.67;;;;;;;;;;5089807;28;20266;-89
2022/04/07 02:41:14;;;;;;;33.73;9.57;;;;;;;;;;5072639;28;20240;-90
2022/04/07 02:43:43;;;;;;;37.13;8.03;;;;;;;;;;5073243;28;20201;-89
2022/04/07 02:46:11;;;;;;;26.30;6.50;;;;;;;;;;5089705;28;20198;-89
2022/04/07 02:48:40;;;;;;;31.93;9.20;;;;;;;;;;5082106;28;20242;-89
2022/04/07 02:51:10;;;;;;;20.10;6.67;;;;;;;;;;5072705;28;20204;-89
2022/04/07 02:53:38;;;;;;;25.50;7.33;;;;;;;;;;5072680;28;20230;-90
2022/04/07 02:56:07;;;;;;;17.23;5.60;;;;;;;;;;5072421;28;20206;-90
2022/04/07 02:58:35;;;;;;;34.40;9.93;;;;;;;;;;5072812;28;20198;-90
2022/04/07 03:01:04;;;;;;;33.03;10.50;;;;;;;;;;5072413;28;20207;-89
2022/04/07 03:03:32;;;;;;;34.17;9.70;;;;;;;;;;5072550;28;20204;-89
2022/04/07 03:06:01;;;;;;;29.20;9.67;;;;;;;;;;5072029;28;20228;-89
2022/04/07 03:08:32;;;;;;;36.20;13.30;;;;;;;;;;5072650;28;20204;-89
2022/04/07 03:11:01;;;;;;;25.13;8.57;;;;;;;;;;5073246;28;20205;-88
2022/04/07 03:13:29;;;;;;;30.40;9.97;;;;;;;;;;5073353;28;20204;-89
2022/04/07 03:15:58;;;;;;;34.10;10.10;;;;;;;;;;5072062;28;20215;-89
2022/04/07 03:18:27;;;;;;;31.33;8.40;;;;;;;;;;5072449;28;20338;-89
2022/04/07 03:20:55;;;;;;;22.60;8.33;;;;;;;;;;5072149;28;20198;-89
2022/04/07 03:23:24;;;;;;;26.43;7.43;;;;;;;;;;5073214;28;20205;-89
2022/04/07 03:25:54;;;;;;;42.73;7.33;;;;;;;;;;5088562;28;20212;-90
2022/04/07 03:28:22;;;;;;;18.30;7.17;;;;;;;;;;5089225;28;20193;-89
2022/04/07 03:30:51;;;;;;;27.80;8.13;;;;;;;;;;5088991;28;20224;-89
2022/04/07 03:33:19;;;;;;;37.30;9.47;;;;;;;;;;5073145;28;20225;-89
2022/04/07 03:35:48;;;;;;;29.23;8.97;;;;;;;;;;5089311;28;20208;-90
2022/04/07 03:38:16;;;;;;;28.03;9.00;;;;;;;;;;5088722;28;20248;-89
2022/04/07 03:40:45;;;;;;;38.07;9.47;;;;;;;;;;5088843;28;20251;-89
2022/04/07 03:43:14;;;;;;;35.93;9.90;;;;;;;;;;5088991;28;20240;-89
2022/04/07 03:45:43;;;;;;;31.40;8.67;;;;;;;;;;5073022;28;20243;-89
2022/04/07 03:48:11;;;;;;;49.23;14.77;;;;;;;;;;5071929;28;20232;-89
2022/04/07 03:50:40;;;;;;;29.37;7.77;;;;;;;;;;5072058;28;20224;-90
2022/04/07 03:53:09;;;;;;;28.83;7.87;;;;;;;;;;5072980;28;20207;-90
2022/04/07 03:55:37;;;;;;;23.60;7.60;;;;;;;;;;5088505;28;20215;-89
2022/04/07 03:58:06;;;;;;;29.70;7.23;;;;;;;;;;5071988;28;20212;-90
2022/04/07 04:00:36;;;;;;;24.07;5.80;;;;;;;;;;5088916;28;20201;-89
2022/04/07 04:03:04;;;;;;;23.67;7.03;;;;;;;;;;5088880;28;20204;-89
2022/04/07 04:05:33;;;;;;;15.17;6.07;;;;;;;;;;5071417;28;20216;-89
2022/04/07 04:08:01;;;;;;;13.43;2.70;;;;;;;;;;5071677;28;20267;-89
2022/04/07 04:10:30;;;;;;;13.03;6.10;;;;;;;;;;5088653;28;20203;-89
2022/04/07 04:12:58;;;;;;;18.60;5.67;;;;;;;;;;5073442;28;20210;-90
2022/04/07 04:15:27;;;;;;;24.93;7.17;;;;;;;;;;5088446;28;20199;-87
2022/04/07 04:17:56;;;;;;;0.60;0.60;;;;;;;;;;5072802;28;20243;-86
2022/04/07 04:20:25;;;;;;;0.60;0.60;;;;;;;;;;5072391;28;20198;-86
2022/04/07 04:22:53;;;;;;;0.60;0.60;;;;;;;;;;5080104;28;20210;-87
2022/04/07 04:25:22;;;;;;;0.70;0.70;;;;;;;;;;5071708;28;20223;-87
2022/04/07 04:27:51;;;;;;;0.70;0.70;;;;;;;;;;5072903;28;20205;-86
2022/04/07 04:30:19;;;;;;;0.70;0.70;;;;;;;;;;5071267;28;20202;-87
2022/04/07 04:32:47;;;;;;;0.70;0.70;;;;;;;;;;5072309;28;20255;-87
2022/04/07 04:35:17;;;;;;;0.70;0.70;;;;;;;;;;5071754;28;20206;-87
2022/04/07 04:37:46;;;;;;;0.77;0.77;;;;;;;;;;5072926;28;20228;-85
2022/04/07 04:40:14;;;;;;;0.70;0.70;;;;;;;;;;5077707;28;20251;-85
2022/04/07 04:42:43;;;;;;;0.70;0.70;;;;;;;;;;5078425;28;20266;-86
2022/04/07 04:45:11;;;;;;;0.70;0.70;;;;;;;;;;5096746;28;20250;-84
2022/04/07 04:47:40;;;;;;;0.70;0.70;;;;;;;;;;5078538;28;20188;-85
2022/04/07 04:50:09;;;;;;;0.70;0.70;;;;;;;;;;5096054;28;20247;-85
2022/04/07 04:52:38;;;;;;;0.70;0.70;;;;;;;;;;5096442;28;20201;-84
2022/04/07 04:55:08;;;;;;;0.70;0.70;;;;;;;;;;5078371;28;20204;-84
2022/04/07 04:57:37;;;;;;;0.80;0.80;;;;;;;;;;5078334;28;20225;-84
2022/04/07 05:00:06;;;;;;;0.70;0.70;;;;;;;;;;5078219;28;20205;-84
2022/04/07 05:02:35;;;;;;;4.80;4.60;;;;;;;;;;5078028;28;20204;-84
2022/04/07 05:05:03;;;;;;;0.70;0.70;;;;;;;;;;5096121;28;20221;-82
2022/04/07 05:07:31;;;;;;;0.70;0.70;;;;;;;;;;5078518;28;20323;-84
2022/04/07 05:10:01;;;;;;;0.70;0.70;;;;;;;;;;5078141;28;20204;-84
2022/04/07 05:12:29;;;;;;;0.70;0.70;;;;;;;;;;5077953;28;20238;-84
2022/04/07 05:14:58;;;;;;;0.70;0.70;;;;;;;;;;5095825;28;20194;-84
2022/04/07 05:17:26;;;;;;;0.70;0.70;;;;;;;;;;5078274;28;20193;-84
2022/04/07 05:19:55;;;;;;;0.70;0.70;;;;;;;;;;5077927;28;20303;-84
2022/04/07 05:22:23;;;;;;;0.70;0.70;;;;;;;;;;5077759;28;20193;-84
2022/04/07 05:24:52;;;;;;;0.63;0.63;;;;;;;;;;5094685;28;20209;-84
2022/04/07 05:27:22;;;;;;;0.70;0.70;;;;;;;;;;5094460;28;20201;-84
2022/04/07 05:29:50;;;;;;;0.70;0.70;;;;;;;;;;5077537;28;20208;-84
2022/04/07 05:32:18;;;;;;;0.70;0.70;;;;;;;;;;5077599;28;20205;-84
2022/04/07 05:34:47;;;;;;;0.60;0.60;;;;;;;;;;5095340;28;20212;-84
2022/04/07 05:37:15;;;;;;;0.70;0.70;;;;;;;;;;5077312;28;20200;-84
2022/04/07 05:39:44;;;;;;;0.70;0.70;;;;;;;;;;5095548;28;20212;-84
2022/04/07 05:42:12;;;;;;;0.70;0.70;;;;;;;;;;5077223;28;20229;-84
2022/04/07 05:44:42;;;;;;;0.70;0.70;;;;;;;;;;5077531;28;20198;-84
2022/04/07 05:47:11;;;;;;;0.70;0.70;;;;;;;;;;5077167;28;20212;-83
2022/04/07 05:49:39;;;;;;;0.70;0.70;;;;;;;;;;5093611;28;20194;-84
2022/04/07 05:52:08;;;;;;;3.40;3.27;;;;;;;;;;5077054;28;20198;-84
2022/04/07 05:54:38;;;;;;;0.70;0.70;;;;;;;;;;5076874;28;20207;-83
2022/04/07 05:57:06;;;;;;;0.70;0.70;;;;;;;;;;5093712;28;20197;-83
2022/04/07 05:59:35;;;;;;;0.70;0.70;;;;;;;;;;5076632;28;20222;-83
2022/04/07 06:02:05;;;;;;;0.60;0.60;;;;;;;;;;5094121;28;20204;-83
2022/04/07 06:04:33;;;;;;;0.70;0.70;;;;;;;;;;5077055;28;20205;-83
2022/04/07 06:07:02;;;;;;;0.70;0.70;;;;;;;;;;5093664;28;20221;-83
2022/04/07 06:09:30;;;;;;;0.67;0.67;;;;;;;;;;5076852;28;20200;-83
2022/04/07 06:11:59;;;;;;;0.60;0.60;;;;;;;;;;5094002;28;20200;-84
2022/04/07 06:14:27;;;;;;;0.70;0.70;;;;;;;;;;5076578;28;20246;-83
2022/04/07 06:16:56;;;;;;;0.60;0.60;;;;;;;;;;5094977;28;20198;-84
2022/04/07 06:19:25;;;;;;;0.60;0.60;;;;;;;;;;5094252;28;20249;-83
2022/04/07 06:21:54;;;;;;;0.60;0.60;;;;;;;;;;5095156;28;20205;-83
2022/04/07 06:24:23;;;;;;;0.70;0.70;;;;;;;;;;5077833;28;20237;-84
2022/04/07 06:26:52;;;;;;;0.60;0.60;;;;;;;;;;5077289;28;20224;-83
2022/04/07 06:29:20;;;;;;;0.70;0.70;;;;;;;;;;5078622;28;20197;-83
2022/04/07 06:31:49;;;;;;;0.60;0.60;;;;;;;;;;5077475;28;20202;-83
2022/04/07 06:34:21;;;;;;;0.70;0.70;;;;;;;;;;5077117;28;20209;-84
2022/04/07 06:36:51;;;;;;;0.60;0.60;;;;;;;;;;5076498;28;20208;-84
2022/04/07 06:39:20;;;;;;;0.57;0.57;;;;;;;;;;5076438;28;20232;-83
2022/04/07 06:41:48;;;;;;;0.60;0.60;;;;;;;;;;5093816;28;20232;-84
2022/04/07 06:44:19;;;;;;;0.70;0.70;;;;;;;;;;5075997;28;20231;-84
2022/04/07 06:46:52;;;;;;;0.70;0.70;;;;;;;;;;5075875;28;20205;-84
2022/04/07 06:49:21;;;;;;;0.70;0.70;;;;;;;;;;5076452;28;20197;-84
2022/04/07 06:51:49;;;;;;;0.70;0.70;;;;;;;;;;5075937;28;20202;-83
2022/04/07 06:54:20;;;;;;;0.70;0.70;;;;;;;;;;5076239;28;20210;-84
2022/04/07 06:56:49;;;;;;;0.60;0.60;;;;;;;;;;5076097;28;20292;-85
2022/04/07 06:59:17;;;;;;;0.60;0.60;;;;;;;;;;5075722;28;20267;-85
2022/04/07 07:01:46;;;;;;;0.70;0.70;;;;;;;;;;5075153;28;20209;-85
2022/04/07 07:04:15;;;;;;;0.70;0.70;;;;;;;;;;5076004;28;20208;-85
2022/04/07 07:06:44;;;;;;;0.60;0.60;;;;;;;;;;5075917;28;20222;-86
2022/04/07 07:09:12;;;;;;;0.60;0.60;;;;;;;;;;5075439;28;20208;-86
2022/04/07 07:11:42;;;;;;;0.60;0.60;;;;;;;;;;5075556;28;20197;-86
2022/04/07 07:14:12;;;;;;;0.57;0.57;;;;;;;;;;5075819;28;20197;-86
2022/04/07 07:16:40;;;;;;;0.60;0.60;;;;;;;;;;5075574;28;20212;-86
2022/04/07 07:19:10;;;;;;;0.60;0.60;;;;;;;;;;5075537;28;20218;-85
2022/04/07 07:21:38;;;;;;;0.70;0.70;;;;;;;;;;5075466;28;20203;-86
2022/04/07 07:24:13;;;;;;;0.70;0.70;;;;;;;;;;5074890;28;20259;-85
2022/04/07 07:26:43;;;;;;;0.70;0.70;;;;;;;;;;5083038;28;20194;-86
2022/04/07 07:29:11;;;;;;;0.70;0.70;;;;;;;;;;5074506;28;20285;-86
2022/04/07 07:31:40;;;;;;;0.67;0.67;;;;;;;;;;5095005;28;20203;-87
2022/04/07 07:34:09;;;;;;;0.70;0.70;;;;;;;;;;5077693;28;20219;-87
2022/04/07 07:36:38;;;;;;;0.70;0.70;;;;;;;;;;5075649;28;20220;-88
2022/04/07 07:39:07;;;;;;;0.60;0.60;;;;;;;;;;5080069;28;20220;-88
2022/04/07 07:41:38;;;;;;;0.60;0.60;;;;;;;;;;5073665;28;20332;-87
2022/04/07 07:44:08;;;;;;;0.60;0.60;;;;;;;;;;5075607;28;20196;-88
2022/04/07 07:46:36;;;;;;;0.60;0.60;;;;;;;;;;5072443;28;20197;-88
2022/04/07 07:49:08;;;;;;;0.60;0.60;;;;;;;;;;5074554;28;20284;-88
2022/04/07 07:51:37;;;;;;;0.60;0.60;;;;;;;;;;5069411;28;20207;-88
2022/04/07 07:54:06;;;;;;;0.63;0.63;;;;;;;;;;5073056;28;20200;-86
2022/04/07 07:56:34;;;;;;;0.60;0.60;;;;;;;;;;5071475;28;20210;-86
2022/04/07 07:59:09;;;;;;;0.60;0.60;;;;;;;;;;5072653;28;20219;-87
2022/04/07 08:01:38;;;;;;;0.60;0.60;;;;;;;;;;5068604;28;20225;-87
2022/04/07 08:04:07;;;;;;;0.60;0.60;;;;;;;;;;5077017;28;20204;-88
2022/04/07 08:06:36;;;;;;;0.60;0.60;;;;;;;;;;5065952;28;20226;-88
2022/04/07 08:09:05;;;;;;;0.50;0.50;;;;;;;;;;5075964;28;20203;-87
2022/04/07 08:11:33;;;;;;;0.57;0.57;;;;;;;;;;5069708;28;20199;-87
2022/04/07 08:14:03;;;;;;;0.60;0.60;;;;;;;;;;5071415;28;20215;-87
2022/04/07 08:16:40;;;;;;;0.57;0.57;;;;;;;;;;5091440;28;20287;-88
2022/04/07 08:19:19;;;;;;;0.50;0.50;;;;;;;;;;5076497;28;20199;-88
2022/04/07 08:21:47;;;;;;;0.50;0.50;;;;;;;;;;5089104;28;20226;-88
2022/04/07 08:24:19;;;;;;;0.50;0.50;;;;;;;;;;5075762;28;20282;-87
2022/04/07 08:26:48;;;;;;;0.70;0.70;;;;;;;;;;5086448;28;20258;-88
2022/04/07 08:29:16;;;;;;;0.50;0.50;;;;;;;;;;5093216;28;20235;-88
2022/04/07 08:31:47;;;;;;;17.87;5.63;;;;;;;;;;5077692;28;20254;-88
2022/04/07 08:34:16;;;;;;;9.50;3.83;;;;;;;;;;5079583;28;20313;-85
2022/04/07 08:36:45;;;;;;;9.30;4.17;;;;;;;;;;5077433;28;20196;-88
2022/04/07 08:39:14;;;;;;;9.23;3.60;;;;;;;;;;5065240;28;20205;-88
2022/04/07 08:41:45;;;;;;;9.00;3.00;;;;;;;;;;5077000;28;20228;-88
2022/04/07 08:44:15;;;;;;;12.07;3.17;;;;;;;;;;5076267;28;20201;-88
2022/04/07 08:46:48;;;;;;;9.17;3.63;;;;;;;;;;5074656;28;20223;-89
2022/04/07 08:49:20;;;;;;;13.90;3.47;;;;;;;;;;5096366;28;20199;-90
2022/04/07 08:51:52;;;;;;;11.03;3.37;;;;;;;;;;5078488;28;20208;-90
2022/04/07 08:54:27;;;;;;;9.73;3.33;;;;;;;;;;5074899;28;20246;-89
2022/04/07 08:56:56;;;;;;;7.23;3.30;;;;;;;;;;5082248;28;20204;-88
2022/04/07 08:59:26;;;;;;;10.73;3.27;;;;;;;;;;5081039;28;20208;-89
2022/04/07 09:02:01;;;;;;;11.57;4.73;;;;;;;;;;5078079;28;20219;-89
2022/04/07 09:04:39;;;;;;;17.77;6.73;;;;;;;;;;5086464;28;20206;-89
2022/04/07 09:07:09;;;;;;;11.83;4.37;;;;;;;;;;5082133;28;20283;-89
2022/04/07 09:09:39;;;;;;;10.90;3.33;;;;;;;;;;5068339;28;20200;-89
2022/04/07 09:12:10;;;;;;;9.97;3.50;;;;;;;;;;5068401;28;20224;-89
2022/04/07 09:14:40;;;;;;;14.10;5.10;;;;;;;;;;5095734;28;20199;-88
2022/04/07 09:17:15;;;;;;;13.10;4.30;;;;;;;;;;5077112;28;20197;-89
2022/04/07 09:19:52;;;;;;;6.87;3.67;;;;;;;;;;5077720;28;20213;-89
2022/04/07 09:22:29;;;;;;;15.87;4.73;;;;;;;;;;5088500;28;20204;-90
2022/04/07 09:25:00;;;;;;;10.70;3.13;;;;;;;;;;5080560;28;20199;-89
2022/04/07 09:27:32;;;;;;;15.73;3.67;;;;;;;;;;5081429;28;20208;-89
2022/04/07 09:30:10;;;;;;;13.50;4.53;;;;;;;;;;5077567;28;20283;-89
2022/04/07 09:32:42;;;;;;;11.07;3.60;;;;;;;;;;5070130;28;20204;-89
2022/04/07 09:35:20;;;;;;;7.37;2.70;;;;;;;;;;5080449;28;20197;-90
2022/04/07 09:37:54;;;;;;;15.30;4.03;;;;;;;;;;5091236;28;20254;-91
2022/04/07 09:40:30;;;;;;;8.13;2.60;;;;;;;;;;5076229;28;20303;-89
2022/04/07 09:43:02;;;;;;;12.20;3.87;;;;;;;;;;5077368;28;20233;-90
2022/04/07 09:45:31;;;;;;;10.47;3.80;;;;;;;;;;5079618;28;20204;-89
2022/04/07 09:48:24;;;;;;;9.63;3.30;;;;;;;;;;5091547;28;20232;-88
2022/04/07 09:51:07;;;;;;;12.07;5.23;;;;;;;;;;5073196;28;20230;-89
2022/04/07 09:53:38;;;;;;;11.93;3.80;;;;;;;;;;5080525;28;20295;-90
2022/04/07 09:56:18;;;;;;;10.03;3.87;;;;;;;;;;5072500;28;20201;-89
2022/04/07 09:58:52;;;;;;;19.43;4.73;;;;;;;;;;5074053;28;20228;-89
2022/04/07 10:01:21;;;;;;;14.33;3.40;;;;;;;;;;5085694;28;20246;-90
2022/04/07 10:04:08;;;;;;;9.33;3.00;;;;;;;;;;5079950;28;20254;-89
2022/04/07 10:06:46;;;;;;;10.67;3.50;;;;;;;;;;5076472;28;20224;-90
2022/04/07 10:09:21;;;;;;;10.00;4.10;;;;;;;;;;5080063;28;20265;-89
2022/04/07 10:12:05;;;;;;;12.90;3.60;;;;;;;;;;5078008;28;20193;-90
2022/04/07 10:18:27;;;;;;;19.53;4.23;;;;;;;;;;5004280;28;20203;-90
2022/04/07 10:21:06;;;;;;;14.00;4.47;;;;;;;;;;5011977;28;20256;-89
2022/04/07 10:23:53;;;;;;;14.23;3.70;;;;;;;;;;5019631;28;20218;-87
2022/04/07 10:26:30;;;;;;;7.87;2.33;;;;;;;;;;5016693;28;20203;-87
2022/04/07 10:29:12;;;;;;;12.03;4.43;;;;;;;;;;5023215;28;20215;-89
2022/04/07 10:31:42;;;;;;;9.40;3.00;;;;;;;;;;5022327;28;20202;-90
2022/04/07 10:34:36;;;;;;;19.00;4.13;;;;;;;;;;5023680;28;20221;-89
2022/04/07 10:37:24;;;;;;;11.77;3.60;;;;;;;;;;5004372;28;20233;-91
2022/04/07 10:40:28;;;;;;;14.87;4.87;;;;;;;;;;5025365;28;20210;-91
2022/04/07 10:46:22;;;;;;;8.27;3.07;;;;;;;;;;5006785;28;20256;-90
2022/04/07 10:48:54;;;;;;;8.43;2.30;;;;;;;;;;5019835;28;20202;-91
2022/04/07 10:51:52;;;;;;;18.57;5.60;;;;;;;;;;5018684;28;20199;-90
2022/04/07 10:54:31;;;;;;;18.47;5.33;;;;;;;;;;5031563;28;20442;-88
2022/04/07 10:57:07;;;;;;;6.10;4.70;;;;;;;;;;5076120;28;20224;-87
2022/04/07 10:59:45;;;;;;;11.13;3.37;;;;;;;;;;5078346;28;20205;-89
2022/04/07 11:02:15;;;;;;;12.47;3.93;;;;;;;;;;5074055;28;20213;-88
2022/04/07 11:05:01;;;;;;;15.33;3.60;;;;;;;;;;5083676;28;20194;-87
2022/04/07 11:07:37;;;;;;;8.47;4.03;;;;;;;;;;5072104;28;20209;-87
2022/04/07 11:10:11;;;;;;;15.13;6.70;;;;;;;;;;5075498;28;20219;-84
2022/04/07 11:12:48;;;;;;;11.93;4.37;;;;;;;;;;5092636;28;20260;-85
2022/04/07 11:15:20;;;;;;;8.80;4.43;;;;;;;;;;5070496;28;20204;-84
2022/04/07 11:17:50;;;;;;;16.70;4.97;;;;;;;;;;5067431;28;20197;-84
2022/04/07 11:20:20;;;;;;;12.00;4.13;;;;;;;;;;5075238;28;20209;-85
2022/04/07 11:22:50;;;;;;;8.50;3.20;;;;;;;;;;5070929;28;20221;-85
2022/04/07 11:25:25;;;;;;;7.23;2.07;;;;;;;;;;5071365;28;20312;-84
2022/04/07 11:28:10;;;;;;;10.83;3.27;;;;;;;;;;5073665;28;20200;-86
2022/04/07 11:30:44;;;;;;;15.70;4.10;;;;;;;;;;5087940;28;20197;-82
2022/04/07 11:33:37;;;;;;;8.53;3.10;;;;;;;;;;5081459;28;20204;-83
2022/04/07 11:36:13;;;;;;;8.43;3.27;;;;;;;;;;5082025;28;20196;-81
2022/04/07 11:38:45;;;;;;;16.30;3.10;;;;;;;;;;5083683;28;20288;-82
2022/04/07 11:41:15;;;;;;;12.07;4.50;;;;;;;;;;5072303;28;20226;-85
2022/04/07 11:43:46;;;;;;;10.70;3.87;;;;;;;;;;5072412;28;20204;-84
2022/04/07 11:46:16;;;;;;;10.00;3.43;;;;;;;;;;5064432;28;20189;-86
2022/04/07 11:49:05;;;;;;;10.17;2.83;;;;;;;;;;5099477;28;20197;-84
2022/04/07 11:51:39;;;;;;;10.33;4.60;;;;;;;;;;5098603;28;20219;-84
2022/04/07 11:54:08;;;;;;;10.57;4.17;;;;;;;;;;5074909;28;20203;-85
2022/04/07 11:56:40;;;;;;;21.70;3.23;;;;;;;;;;5097011;28;20189;-84
2022/04/07 11:59:12;;;;;;;5.93;2.80;;;;;;;;;;5060702;28;20193;-84
2022/04/07 12:01:45;;;;;;;11.37;3.87;;;;;;;;;;5068304;28;20221;-85
2022/04/07 12:04:15;;;;;;;9.37;3.87;;;;;;;;;;5068007;28;20227;-86
2022/04/07 12:06:46;;;;;;;14.77;4.77;;;;;;;;;;5071207;28;20252;-85
2022/04/07 12:09:17;;;;;;;9.47;3.50;;;;;;;;;;5073206;28;20224;-85
2022/04/07 12:11:46;;;;;;;17.23;5.30;;;;;;;;;;5069950;28;20193;-86
2022/04/07 12:14:21;;;;;;;11.53;3.77;;;;;;;;;;5077808;28;20215;-86
2022/04/07 12:16:52;;;;;;;9.67;3.20;;;;;;;;;;5065247;28;20207;-85
2022/04/07 12:19:21;;;;;;;11.40;3.37;;;;;;;;;;5065332;28;20210;-85
2022/04/07 12:21:58;;;;;;;10.33;3.93;;;;;;;;;;5069781;28;20231;-85
2022/04/07 12:24:27;;;;;;;16.63;5.17;;;;;;;;;;5072650;28;20300;-85
2022/04/07 12:26:58;;;;;;;9.97;3.27;;;;;;;;;;5073799;28;20197;-85
2022/04/07 12:29:30;;;;;;;10.90;3.57;;;;;;;;;;5090803;28;20274;-84
2022/04/07 12:32:00;;;;;;;7.93;3.57;;;;;;;;;;5090222;28;20224;-84
2022/04/07 12:34:29;;;;;;;11.40;3.40;;;;;;;;;;5074052;28;20209;-85
2022/04/07 12:36:58;;;;;;;11.93;4.03;;;;;;;;;;5072660;28;20236;-85
2022/04/07 12:39:31;;;;;;;15.90;4.10;;;;;;;;;;5067185;28;20205;-85
2022/04/07 12:42:09;;;;;;;7.70;3.47;;;;;;;;;;5072727;28;20233;-84
2022/04/07 12:44:40;;;;;;;10.03;4.47;;;;;;;;;;5071897;28;20258;-84
2022/04/07 12:47:13;;;;;;;16.20;5.50;;;;;;;;;;5078371;28;20207;-84
2022/04/07 12:49:54;;;;;;;7.30;3.77;;;;;;;;;;5073035;28;20224;-85
2022/04/07 12:52:34;;;;;;;16.60;5.00;;;;;;;;;;5070399;28;20204;-84
2022/04/07 12:55:04;;;;;;;13.90;3.53;;;;;;;;;;5081057;28;20250;-85
2022/04/07 12:57:33;;;;;;;9.30;4.67;;;;;;;;;;5072918;28;20209;-85
2022/04/07 13:00:23;;;;;;;8.17;3.70;;;;;;;;;;5073347;28;20224;-85
2022/04/07 13:02:53;;;;;;;11.57;4.53;;;;;;;;;;5076698;28;20213;-86
2022/04/07 13:05:24;;;;;;;11.67;4.60;;;;;;;;;;5078498;28;20225;-85
2022/04/07 13:07:53;;;;;;;13.77;4.77;;;;;;;;;;5090243;28;20209;-85
2022/04/07 13:10:22;;;;;;;10.47;3.77;;;;;;;;;;5075164;28;20207;-83
2022/04/07 13:12:50;;;;;;;11.57;4.30;;;;;;;;;;5073774;28;20203;-86
2022/04/07 13:15:19;;;;;;;8.77;3.20;;;;;;;;;;5080666;28;20199;-85
2022/04/07 13:18:03;;;;;;;10.77;3.90;;;;;;;;;;5075186;28;20207;-84
2022/04/07 13:20:31;;;;;;;12.73;3.07;;;;;;;;;;5077126;28;20257;-85
2022/04/07 13:23:00;;;;;;;7.63;3.10;;;;;;;;;;5077765;28;20282;-84
2022/04/07 13:25:29;;;;;;;7.87;5.10;;;;;;;;;;5079118;28;20208;-84
2022/04/07 13:27:57;;;;;;;4.93;2.57;;;;;;;;;;5076102;28;20236;-85
2022/04/07 13:30:26;;;;;;;11.90;3.93;;;;;;;;;;5074312;28;20289;-85
2022/04/07 13:32:56;;;;;;;13.00;5.33;;;;;;;;;;5075622;28;20193;-84
2022/04/07 13:35:25;;;;;;;8.03;3.27;;;;;;;;;;5076035;28;20215;-85
2022/04/07 13:37:58;;;;;;;15.60;4.90;;;;;;;;;;5075563;28;20270;-84
2022/04/07 13:40:26;;;;;;;10.87;3.87;;;;;;;;;;5077233;28;20197;-84
2022/04/07 13:43:01;;;;;;;8.37;3.30;;;;;;;;;;5086366;28;20224;-85
2022/04/07 13:45:31;;;;;;;9.77;3.43;;;;;;;;;;5068834;28;20224;-85
2022/04/07 13:48:01;;;;;;;8.57;4.20;;;;;;;;;;5072237;28;20208;-85
2022/04/07 13:50:30;;;;;;;12.17;3.33;;;;;;;;;;5076748;28;20211;-85
2022/04/07 13:53:00;;;;;;;18.80;4.87;;;;;;;;;;5073736;28;20193;-84
2022/04/07 13:55:30;;;;;;;10.77;4.00;;;;;;;;;;5075070;28;20201;-84
2022/04/07 13:57:58;;;;;;;9.63;3.77;;;;;;;;;;5075778;28;20201;-83
2022/04/07 14:00:27;;;;;;;5.17;2.63;;;;;;;;;;5080705;28;20293;-82
2022/04/07 14:02:55;;;;;;;9.70;3.73;;;;;;;;;;5092145;28;20218;-82
2022/04/07 14:05:26;;;;;;;14.73;4.67;;;;;;;;;;5074147;28;20226;-82
2022/04/07 14:07:54;;;;;;;13.07;3.00;;;;;;;;;;5074804;28;20205;-82
2022/04/07 14:10:23;;;;;;;11.80;3.33;;;;;;;;;;5073310;28;20200;-83
2022/04/07 14:12:52;;;;;;;14.30;3.70;;;;;;;;;;5073808;28;20207;-83
2022/04/07 14:15:23;;;;;;;8.40;3.43;;;;;;;;;;5073358;28;20206;-84
2022/04/07 14:17:51;;;;;;;13.03;3.90;;;;;;;;;;5073436;28;20217;-83
2022/04/07 14:20:24;;;;;;;9.63;2.27;;;;;;;;;;5075443;28;20239;-84
2022/04/07 14:22:55;;;;;;;9.47;3.67;;;;;;;;;;5072388;28;20234;-85
2022/04/07 14:25:23;;;;;;;8.13;2.00;;;;;;;;;;5073345;28;20268;-85
2022/04/07 14:27:52;;;;;;;13.40;4.60;;;;;;;;;;5074093;28;20228;-85
2022/04/07 14:30:21;;;;;;;15.10;4.13;;;;;;;;;;5072442;28;20508;-85
2022/04/07 14:32:50;;;;;;;10.60;2.93;;;;;;;;;;5072193;28;20223;-85
2022/04/07 14:35:40;;;;;;;10.80;3.73;;;;;;;;;;5074742;28;20222;-86
2022/04/07 14:38:11;;;;;;;15.27;5.87;;;;;;;;;;5073117;28;20230;-85
2022/04/07 14:40:40;;;;;;;15.40;3.10;;;;;;;;;;5078019;28;20206;-85
2022/04/07 14:43:09;;;;;;;17.73;3.67;;;;;;;;;;5070999;28;20234;-84
2022/04/07 14:45:38;;;;;;;9.27;5.27;;;;;;;;;;5088249;28;20232;-84
2022/04/07 14:48:06;;;;;;;9.40;3.20;;;;;;;;;;5079619;28;20228;-84
2022/04/07 14:50:36;;;;;;;4.80;2.50;;;;;;;;;;5073707;28;20194;-83
2022/04/07 14:53:04;;;;;;;5.60;2.40;;;;;;;;;;5058321;28;20263;-83
2022/04/07 14:55:34;;;;;;;12.37;2.77;;;;;;;;;;5063416;28;20217;-84
2022/04/07 14:58:03;;;;;;;17.40;3.50;;;;;;;;;;5065297;28;20211;-84
2022/04/07 15:00:32;;;;;;;10.70;3.50;;;;;;;;;;5061501;28;20244;-85
2022/04/07 15:03:00;;;;;;;9.83;3.87;;;;;;;;;;5068075;28;20221;-85
2022/04/07 15:05:29;;;;;;;5.80;2.03;;;;;;;;;;5075726;28;20669;-84